International Virtual Aviation Organisation

Eastern Europe and Northern Asia MCD

 

Карточка аэропорта URRP

Внимание!
Информация на этой странице в стадии наполнения.
Если вы не увидели какой-то информации, или заметили неточность - пожалуйста сообщите нам!
Спасибо!
Команда RU-STAFF
Название аэропортаПлатов
Название аэропорта (англ.)Platov
Превышение282 ft. (86 m.)
Координаты47°29.634', 39°55.482'
Высота перехода900
Эшелон перехода050
Коды ответчика1000-1017
Зона ОрВДРостов-на-Дону РПИ (URRV)
Данные METARURRP 121130Z 25004MPS 9999 BKN018 13/10 Q1021 R23/250060 TEMPO 3000 -SHRA BR SCT004 BKN020CB RMK QFE758/1011
Проноз погоды (TAF)URRP 121056Z 1212/1312 26003G10MPS 9999 SCT016 SCT020CB TEMPO 1212/1221 31003G10MPS 6000 -SHRA BKN016 BKN020CB PROB40 TEMPO 1221/1307 0300 FG BKN002 SCT020CB TEMPO 1307/1312 31003G10MPS 6000 -SHRA BKN016 BKN020CB
NOTAMshow/hide NOTAM
AWOS   TABLE

Информация о ВПП

ВПП Длина ВПП (м.) Покрытие Курс ВПП Частота ILS
053900Цементобетон46111.5
233900Цементобетон226110.9

Диспетчерские позиции

Позывной Наименование органа УВД Частота
URRP_GNDПлатов - руление119.0
URRP_TWRПлатов-вышка119.7
URRP_R_APPПлатов - Круг121.2
URRP_DELПлатов-деливери127.1
URRP_APPПлатов-подход128.2



Спутниковое изображение